createdAt,value
2022-11-16T00:02:13.353Z,99303.97
2022-11-16T00:04:40.007Z,99314.34
2022-11-16T00:07:06.816Z,99313.44
2022-11-16T00:09:33.749Z,99314.22
2022-11-16T00:12:03.812Z,99303.81
2022-11-16T00:14:33.045Z,99308.06
2022-11-16T00:17:00.474Z,99307.19
2022-11-16T00:19:27.705Z,99305.53
2022-11-16T00:21:54.942Z,99308.19
2022-11-16T00:24:22.486Z,99308.09
2022-11-16T00:26:50.143Z,99297.03
2022-11-16T00:29:20.653Z,99298.75
2022-11-16T00:31:47.954Z,99300.31
2022-11-16T00:34:15.334Z,99291.84
2022-11-16T00:36:42.174Z,99293.50
2022-11-16T00:39:11.763Z,99286.88
2022-11-16T00:41:38.245Z,99306.59
2022-11-16T00:44:04.908Z,99309.22
2022-11-16T00:46:31.408Z,99316.22
2022-11-16T00:48:57.869Z,99311.13
2022-11-16T00:51:24.379Z,99314.56
2022-11-16T00:53:52.265Z,99319.59
2022-11-16T00:56:18.946Z,99318.72
2022-11-16T00:58:45.517Z,99298.13
2022-11-16T01:01:12.376Z,99293.84
2022-11-16T01:03:39.422Z,99298.97
2022-11-16T01:06:09.350Z,99305.94
2022-11-16T01:08:37.668Z,99293.06
2022-11-16T01:11:23.857Z,99292.16
2022-11-16T01:13:50.699Z,99276.75
2022-11-16T01:16:18.941Z,99279.41
2022-11-16T01:18:50.041Z,99282.97
2022-11-16T01:21:16.895Z,99281.38
2022-11-16T01:23:43.511Z,99261.69
2022-11-16T01:26:10.100Z,99272.06
2022-11-16T01:28:37.114Z,99276.53
2022-11-16T01:31:04.043Z,99280.97
2022-11-16T01:33:31.016Z,99284.59
2022-11-16T01:35:57.520Z,99282.16
2022-11-16T01:38:29.384Z,99279.72
2022-11-16T01:40:56.706Z,99271.28
2022-11-16T01:43:25.331Z,99267.88
2022-11-16T01:45:52.244Z,99270.63
2022-11-16T01:48:30.059Z,99261.31
2022-11-16T01:50:57.642Z,99263.97
2022-11-16T01:53:25.498Z,99271.00
2022-11-16T01:55:52.257Z,99272.00
2022-11-16T01:58:23.181Z,99278.03
2022-11-16T02:00:50.175Z,99278.94
2022-11-16T02:03:20.967Z,99276.50
2022-11-16T02:06:06.074Z,99278.97
2022-11-16T02:09:07.134Z,99271.31
2022-11-16T02:11:54.615Z,99278.97
2022-11-16T02:14:53.381Z,99274.63
2022-11-16T02:17:25.889Z,99289.25
2022-11-16T02:20:10.590Z,99274.44
2022-11-16T02:23:13.744Z,99287.31
2022-11-16T02:26:05.153Z,99288.94
2022-11-16T02:28:31.956Z,99279.41
2022-11-16T02:31:03.851Z,99274.16
2022-11-16T02:33:36.917Z,99271.47
2022-11-16T02:36:06.738Z,99273.94
2022-11-16T02:38:38.872Z,99264.41
2022-11-16T02:41:10.141Z,99259.22
2022-11-16T02:43:50.584Z,99262.69
2022-11-16T02:46:22.587Z,99265.34
2022-11-16T02:48:53.225Z,99246.41
2022-11-16T02:51:21.336Z,99249.84
2022-11-16T02:54:08.573Z,99255.09
2022-11-16T02:56:56.895Z,99245.66
2022-11-16T02:59:28.936Z,99251.78
2022-11-16T03:02:32.955Z,99252.84
2022-11-16T03:05:14.853Z,99258.16
2022-11-16T03:07:49.683Z,99256.47
2022-11-16T03:10:38.667Z,99259.84
2022-11-16T03:13:07.075Z,99249.47
2022-11-16T03:15:37.454Z,99252.84
2022-11-16T03:18:07.029Z,99245.97
2022-11-16T03:20:35.290Z,99242.47
2022-11-16T03:23:08.768Z,99242.47
2022-11-16T03:25:51.432Z,99242.59
2022-11-16T03:28:34.280Z,99248.38
2022-11-16T03:31:29.611Z,99245.66
2022-11-16T03:34:00.960Z,99228.31
2022-11-16T03:36:41.562Z,99219.72
2022-11-16T03:39:19.656Z,99228.09
2022-11-16T03:41:48.053Z,99207.47
2022-11-16T03:44:17.265Z,99222.78
2022-11-16T03:46:45.383Z,99215.81
2022-11-16T03:49:12.090Z,99215.81
2022-11-16T03:51:38.831Z,99222.63
2022-11-16T03:54:05.408Z,99214.09
2022-11-16T03:56:31.883Z,99215.81
2022-11-16T03:58:58.467Z,99211.47
2022-11-16T04:01:25.084Z,99212.44
2022-11-16T04:03:51.641Z,99209.13
2022-11-16T04:06:50.837Z,99213.41
2022-11-16T04:09:35.680Z,99206.69
2022-11-16T04:12:20.834Z,99206.81
2022-11-16T04:15:05.703Z,99200.09
2022-11-16T04:17:50.747Z,99198.41
2022-11-16T04:20:46.400Z,99213.06
2022-11-16T04:23:34.908Z,99210.69
2022-11-16T04:26:01.480Z,99217.63
2022-11-16T04:28:34.052Z,99211.72
2022-11-16T04:31:21.890Z,99191.31
2022-11-16T04:34:09.676Z,99210.94
2022-11-16T04:36:54.530Z,99210.13
2022-11-16T04:39:21.098Z,99211.91
2022-11-16T04:42:06.681Z,99206.75
2022-11-16T04:44:54.981Z,99198.28
2022-11-16T04:47:21.432Z,99198.19
2022-11-16T04:49:47.876Z,99197.44
2022-11-16T04:52:14.326Z,99188.66
2022-11-16T04:54:40.823Z,99180.19
2022-11-16T04:57:07.284Z,99179.22
2022-11-16T04:59:33.735Z,99176.63
2022-11-16T05:02:09.367Z,99174.94
2022-11-16T05:04:43.600Z,99181.94
2022-11-16T05:07:13.590Z,99182.84
2022-11-16T05:09:49.580Z,99185.50
2022-11-16T05:12:18.436Z,99181.25
2022-11-16T05:14:45.775Z,99179.56
2022-11-16T05:17:13.302Z,99181.38
2022-11-16T05:19:58.428Z,99177.88
2022-11-16T05:22:24.899Z,99172.78
2022-11-16T05:24:51.943Z,99172.78
2022-11-16T05:27:20.315Z,99171.09
2022-11-16T05:29:49.439Z,99154.88
2022-11-16T05:32:16.856Z,99167.59
2022-11-16T05:34:43.460Z,99161.69
2022-11-16T05:37:10.251Z,99150.50
2022-11-16T05:39:36.836Z,99163.28
2022-11-16T05:42:03.919Z,99163.19
2022-11-16T05:44:30.342Z,99167.44
2022-11-16T05:46:56.891Z,99176.00
2022-11-16T05:49:23.867Z,99182.03
2022-11-16T05:51:50.663Z,99172.47
2022-11-16T05:54:20.778Z,99172.38
2022-11-16T05:56:49.301Z,99155.97
2022-11-16T05:59:18.656Z,99152.19
2022-11-16T06:01:45.629Z,99157.22
2022-11-16T06:04:12.799Z,99158.13
2022-11-16T06:06:39.717Z,99161.34
2022-11-16T06:09:06.236Z,99157.63
2022-11-16T06:11:36.028Z,99165.28
2022-11-16T06:14:03.088Z,99158.25
2022-11-16T06:16:29.585Z,99160.69
2022-11-16T06:18:56.229Z,99171.72
2022-11-16T06:21:22.784Z,99150.34
2022-11-16T06:23:49.303Z,99162.16
2022-11-16T06:26:15.828Z,99165.31
2022-11-16T06:28:42.305Z,99166.88
2022-11-16T06:31:09.201Z,99151.28
2022-11-16T06:33:36.056Z,99157.06
2022-11-16T06:36:02.523Z,99153.66
2022-11-16T06:38:29.117Z,99157.78
2022-11-16T06:40:57.852Z,99149.78
2022-11-16T06:43:26.035Z,99148.81
2022-11-16T06:45:55.192Z,99135.22
2022-11-16T06:48:22.266Z,99138.31
2022-11-16T06:50:49.984Z,99133.91
2022-11-16T06:53:16.888Z,99127.03
2022-11-16T06:55:43.663Z,99134.69
2022-11-16T06:58:10.432Z,99140.47
2022-11-16T07:00:37.091Z,99127.53
2022-11-16T07:03:04.510Z,99124.09
2022-11-16T07:05:32.190Z,99124.00
2022-11-16T07:07:58.826Z,99129.91
2022-11-16T07:10:26.164Z,99120.38
2022-11-16T07:12:52.749Z,99114.56
2022-11-16T07:15:19.591Z,99122.06
2022-11-16T07:17:46.512Z,99113.38
2022-11-16T07:20:13.460Z,99121.94
2022-11-16T07:22:40.192Z,99123.63
2022-11-16T07:25:07.425Z,99130.50
2022-11-16T07:27:33.982Z,99123.63
2022-11-16T07:30:02.091Z,99111.81
2022-11-16T07:32:30.922Z,99128.03
2022-11-16T07:34:59.440Z,99121.94
2022-11-16T07:37:26.340Z,99134.78
2022-11-16T07:39:53.038Z,99130.50
2022-11-16T07:42:19.547Z,99147.66
2022-11-16T07:44:46.063Z,99147.53
2022-11-16T07:47:12.687Z,99132.03
2022-11-16T07:49:39.200Z,99127.81
2022-11-16T07:52:08.777Z,99132.09
2022-11-16T07:54:35.334Z,99126.91
2022-11-16T07:57:01.808Z,99135.59
2022-11-16T07:59:28.526Z,99136.53
2022-11-16T08:01:55.925Z,99134.00
2022-11-16T08:04:22.726Z,99134.00
2022-11-16T08:06:51.598Z,99133.09
2022-11-16T08:09:18.288Z,99136.44
2022-11-16T08:11:44.918Z,99146.75
2022-11-16T08:14:11.714Z,99120.25
2022-11-16T08:16:38.201Z,99121.81
2022-11-16T08:19:04.706Z,99130.41
2022-11-16T08:21:31.182Z,99142.22
2022-11-16T08:23:58.811Z,99155.19
2022-11-16T08:26:25.678Z,99148.44
2022-11-16T08:28:53.733Z,99145.72
2022-11-16T08:31:24.050Z,99142.94
2022-11-16T08:33:51.912Z,99133.28
2022-11-16T08:36:18.697Z,99117.72
2022-11-16T08:38:47.020Z,99122.91
2022-11-16T08:41:14.075Z,99114.31
2022-11-16T08:43:41.107Z,99110.09
2022-11-16T08:46:08.836Z,99095.50
2022-11-16T08:48:37.535Z,99100.44
2022-11-16T08:51:21.459Z,99096.94
2022-11-16T08:53:49.367Z,99100.97
2022-11-16T08:56:18.114Z,99100.16
2022-11-16T08:58:47.290Z,99110.31
2022-11-16T09:01:19.226Z,99113.56
2022-11-16T09:03:46.285Z,99121.25
2022-11-16T09:06:14.084Z,99118.50
2022-11-16T09:08:42.764Z,99120.94
2022-11-16T09:11:18.378Z,99124.22
2022-11-16T09:13:46.722Z,99128.25
2022-11-16T09:16:16.583Z,99133.34
2022-11-16T09:18:45.583Z,99132.41
2022-11-16T09:21:12.196Z,99143.41
2022-11-16T09:23:38.705Z,99151.88
2022-11-16T09:26:05.954Z,99158.66
2022-11-16T09:28:33.097Z,99149.19
2022-11-16T09:31:02.592Z,99148.13
2022-11-16T09:33:30.806Z,99148.13
2022-11-16T09:36:01.968Z,99149.84
2022-11-16T09:38:40.594Z,99146.31
2022-11-16T09:41:15.200Z,99137.63
2022-11-16T09:43:51.660Z,99135.78
2022-11-16T09:46:40.436Z,99139.16
2022-11-16T09:49:20.934Z,99138.31
2022-11-16T09:51:50.638Z,99144.22
2022-11-16T09:54:22.730Z,99147.50
2022-11-16T09:56:53.354Z,99145.50
2022-11-16T09:59:27.225Z,99140.19
2022-11-16T10:01:58.085Z,99139.94
2022-11-16T10:04:39.457Z,99146.66
2022-11-16T10:07:15.880Z,99146.41
2022-11-16T10:09:46.731Z,99144.56
2022-11-16T10:12:37.925Z,99150.34
2022-11-16T10:15:23.505Z,99148.31
2022-11-16T10:18:08.126Z,99148.94
2022-11-16T10:20:45.224Z,99143.63
2022-11-16T10:23:27.058Z,99150.38
2022-11-16T10:26:00.449Z,99137.34
2022-11-16T10:28:39.011Z,99141.84
2022-11-16T10:31:26.313Z,99144.88
2022-11-16T10:33:55.488Z,99142.81
2022-11-16T10:36:27.440Z,99142.50
2022-11-16T10:38:58.407Z,99139.19
2022-11-16T10:41:46.313Z,99141.38
2022-11-16T10:44:25.783Z,99134.06
2022-11-16T10:47:16.868Z,99120.91
2022-11-16T10:49:48.697Z,99122.00
2022-11-16T10:52:15.201Z,99120.03
2022-11-16T10:54:44.400Z,99123.47
2022-11-16T10:57:14.165Z,99120.47
2022-11-16T10:59:49.973Z,99135.66
2022-11-16T11:02:25.275Z,99128.13
2022-11-16T11:05:21.362Z,99122.34
2022-11-16T11:08:11.359Z,99138.53
2022-11-16T11:10:40.259Z,99137.44
2022-11-16T11:13:12.887Z,99132.53
2022-11-16T11:15:42.943Z,99118.91
2022-11-16T11:18:30.010Z,99125.81
2022-11-16T11:21:19.451Z,99127.88
2022-11-16T11:23:51.292Z,99122.22
2022-11-16T11:26:38.643Z,99132.41
2022-11-16T11:29:27.603Z,99129.47
2022-11-16T11:32:00.022Z,99123.94
2022-11-16T11:34:30.489Z,99108.47
2022-11-16T11:37:03.074Z,99100.19
2022-11-16T11:39:37.248Z,99098.69
2022-11-16T11:42:06.994Z,99090.09
2022-11-16T11:44:58.722Z,99099.22
2022-11-16T11:47:57.400Z,99090.81
2022-11-16T11:50:47.081Z,99087.44
2022-11-16T11:53:36.100Z,99105.25
2022-11-16T11:56:03.118Z,99103.59
2022-11-16T11:58:32.447Z,99078.69
2022-11-16T12:01:28.496Z,99081.00
2022-11-16T12:15:21.649Z,99066.78
2022-11-16T12:18:45.159Z,99047.81
2022-11-16T12:21:18.048Z,99038.72
2022-11-16T12:23:55.531Z,99033.44
2022-11-16T12:26:47.496Z,99024.75
2022-11-16T12:29:25.725Z,99026.59
2022-11-16T12:32:13.481Z,99015.47
2022-11-16T12:34:52.647Z,99014.78
2022-11-16T12:37:50.284Z,99007.38
2022-11-16T12:40:34.105Z,99010.25
2022-11-16T12:43:14.325Z,99007.06
2022-11-16T12:45:59.149Z,99001.41
2022-11-16T12:48:33.278Z,99011.13
2022-11-16T12:51:14.909Z,99009.78
2022-11-16T12:53:54.826Z,99009.97
2022-11-16T12:56:27.295Z,99004.91
2022-11-16T12:59:02.816Z,99006.06
2022-11-16T13:05:25.526Z,98978.97
2022-11-16T13:07:57.413Z,98991.25
2022-11-16T13:10:35.158Z,98984.69
2022-11-16T13:13:30.121Z,98967.69
2022-11-16T13:15:58.657Z,98959.78
2022-11-16T13:18:27.090Z,98967.19
2022-11-16T13:21:11.502Z,98968.84
2022-11-16T13:23:54.319Z,98960.88
2022-11-16T13:26:34.089Z,98949.53
2022-11-16T13:29:32.484Z,98951.19
2022-11-16T13:32:30.566Z,98938.16
2022-11-16T13:35:03.377Z,98925.47
2022-11-16T13:37:38.920Z,98927.13
2022-11-16T13:40:05.534Z,98923.94
2022-11-16T13:42:34.347Z,98925.03
2022-11-16T13:45:15.231Z,98920.91
2022-11-16T13:47:50.266Z,98912.34
2022-11-16T13:50:19.858Z,98910.66
2022-11-16T13:56:10.656Z,98892.91
2022-11-16T13:58:43.912Z,98885.44
2022-11-16T14:01:15.378Z,98893.00
2022-11-16T14:03:47.405Z,98875.34
2022-11-16T14:06:13.791Z,98879.13
2022-11-16T14:08:40.235Z,98874.09
2022-11-16T14:11:32.856Z,98861.41
2022-11-16T14:14:01.572Z,98859.97
2022-11-16T14:16:29.069Z,98858.53
2022-11-16T14:19:01.323Z,98862.25
2022-11-16T14:21:58.903Z,98854.66
2022-11-16T14:24:47.517Z,98854.81
2022-11-16T14:27:41.475Z,98844.06
2022-11-16T14:30:24.629Z,98851.28
2022-11-16T14:32:53.819Z,98839.50
2022-11-16T14:35:36.512Z,98847.41
2022-11-16T14:38:06.469Z,98840.66
2022-11-16T14:40:41.144Z,98843.34
2022-11-16T14:43:16.925Z,98833.13
2022-11-16T14:45:49.075Z,98826.06
2022-11-16T14:48:18.439Z,98818.25
2022-11-16T14:51:00.244Z,98821.78
2022-11-16T14:53:29.239Z,98812.44
2022-11-16T14:56:09.360Z,98785.97
2022-11-16T14:58:36.466Z,98786.81
2022-11-16T15:01:06.190Z,98804.78
2022-11-16T15:03:48.074Z,98797.31
2022-11-16T15:06:16.157Z,98785.22
2022-11-16T15:09:02.167Z,98776.81
2022-11-16T15:11:54.218Z,98787.72
2022-11-16T15:14:41.690Z,98773.28
2022-11-16T15:17:09.729Z,98784.47
2022-11-16T15:19:36.877Z,98771.78
2022-11-16T15:22:04.475Z,98776.47
2022-11-16T15:24:35.442Z,98772.19
2022-11-16T15:27:27.510Z,98767.94
2022-11-16T15:29:54.027Z,98754.13
2022-11-16T15:32:20.670Z,98751.78
2022-11-16T15:34:53.822Z,98760.13
2022-11-16T15:37:30.339Z,98743.91
2022-11-16T15:39:59.130Z,98730.78
2022-11-16T15:42:27.521Z,98725.50
2022-11-16T15:44:54.833Z,98714.16
2022-11-16T15:47:22.918Z,98707.13
2022-11-16T15:49:52.817Z,98716.19
2022-11-16T15:52:42.638Z,98716.19
2022-11-16T15:55:24.391Z,98705.78
2022-11-16T15:58:18.905Z,98695.53
2022-11-16T16:00:48.641Z,98698.22
2022-11-16T16:03:27.013Z,98672.78
2022-11-16T16:05:54.564Z,98683.00
2022-11-16T16:08:38.856Z,98676.22
2022-11-16T16:11:28.641Z,98665.94
2022-11-16T16:14:00.754Z,98651.50
2022-11-16T16:16:28.205Z,98649.66
2022-11-16T16:19:08.319Z,98645.53
2022-11-16T16:21:44.973Z,98636.25
2022-11-16T16:24:41.831Z,98630.25
2022-11-16T16:27:12.402Z,98629.50
2022-11-16T16:29:39.233Z,98619.25
2022-11-16T16:32:06.243Z,98616.00
2022-11-16T16:34:35.418Z,98618.59
2022-11-16T16:37:04.158Z,98593.94
2022-11-16T16:39:31.989Z,98581.41
2022-11-16T16:41:58.456Z,98592.06
2022-11-16T16:44:24.926Z,98588.56
2022-11-16T16:46:51.373Z,98571.59
2022-11-16T16:49:18.057Z,98580.75
2022-11-16T16:51:44.496Z,98567.94
2022-11-16T16:54:14.141Z,98563.47
2022-11-16T16:56:40.691Z,98535.28
2022-11-16T16:59:14.123Z,98538.53
2022-11-16T17:01:41.179Z,98518.09
2022-11-16T17:04:07.838Z,98515.41
2022-11-16T17:06:34.652Z,98516.25
2022-11-16T17:09:01.142Z,98481.69
2022-11-16T17:11:29.035Z,98509.38
2022-11-16T17:13:55.746Z,98498.63
2022-11-16T17:16:22.750Z,98499.47
2022-11-16T17:18:54.877Z,98483.94
2022-11-16T17:21:21.615Z,98478.16
2022-11-16T17:23:48.066Z,98488.06
2022-11-16T17:26:14.668Z,98486.53
2022-11-16T17:28:41.273Z,98483.19
2022-11-16T17:31:10.116Z,98481.31
2022-11-16T17:33:37.844Z,98476.31
2022-11-16T17:36:06.217Z,98483.19
2022-11-16T17:38:36.211Z,98468.41
2022-11-16T17:41:15.515Z,98469.44
2022-11-16T17:43:43.494Z,98470.28
2022-11-16T17:46:15.513Z,98459.19
2022-11-16T17:48:43.744Z,98447.31
2022-11-16T17:51:15.268Z,98449.81
2022-11-16T17:53:44.235Z,98433.72
2022-11-16T17:56:15.013Z,98438.19
2022-11-16T17:58:41.754Z,98430.38
2022-11-16T18:01:08.439Z,98422.66
2022-11-16T18:03:38.937Z,98412.44
2022-11-16T18:06:14.625Z,98415.84
2022-11-16T18:08:42.469Z,98409.91
2022-11-16T18:11:23.516Z,98402.28
2022-11-16T18:13:55.101Z,98389.81
2022-11-16T18:16:24.114Z,98366.16
2022-11-16T18:18:56.918Z,98368.69
2022-11-16T18:21:23.711Z,98366.00
2022-11-16T18:23:50.247Z,98358.94
2022-11-16T18:26:21.106Z,98347.06
2022-11-16T18:28:48.858Z,98340.75
2022-11-16T18:31:18.027Z,98328.78
2022-11-16T18:33:45.082Z,98305.84
2022-11-16T18:36:12.854Z,98287.72
2022-11-16T18:38:39.299Z,98278.34
2022-11-16T18:41:13.862Z,98265.78
2022-11-16T18:43:51.210Z,98264.63
2022-11-16T18:46:19.476Z,98253.41
2022-11-16T18:48:46.761Z,98227.09
2022-11-16T18:51:14.581Z,98231.78
2022-11-16T18:53:41.691Z,98218.09
2022-11-16T18:56:08.899Z,98198.50
2022-11-16T18:58:52.744Z,98195.56
2022-11-16T19:01:25.528Z,98181.84
2022-11-16T19:03:53.650Z,98163.56
2022-11-16T19:06:20.931Z,98141.94
2022-11-16T19:08:55.009Z,98116.53
2022-11-16T19:11:22.783Z,98116.16
2022-11-16T19:13:53.974Z,98098.88
2022-11-16T19:16:21.275Z,98081.16
2022-11-16T19:18:47.891Z,98068.25
2022-11-16T19:21:18.625Z,98064.00
2022-11-16T19:23:51.007Z,98059.53
2022-11-16T19:26:19.643Z,98037.47
2022-11-16T19:28:48.380Z,98022.44
2022-11-16T19:31:28.838Z,98005.00
2022-11-16T19:33:59.679Z,98003.34
2022-11-16T19:36:28.154Z,97986.25
2022-11-16T19:38:54.847Z,97964.03
2022-11-16T19:41:22.581Z,97946.59
2022-11-16T19:43:56.938Z,97939.72
2022-11-16T19:46:24.863Z,97927.09
2022-11-16T19:48:52.276Z,97914.84
2022-11-16T19:51:24.772Z,97900.16
2022-11-16T19:53:51.758Z,97895.56
2022-11-16T19:56:20.317Z,97878.50
2022-11-16T19:58:47.279Z,97870.44
2022-11-16T20:01:15.535Z,97856.72
2022-11-16T20:03:42.246Z,97846.44
2022-11-16T20:06:14.293Z,97829.00
2022-11-16T20:08:42.510Z,97812.69
2022-11-16T20:11:23.627Z,97817.50
2022-11-16T20:13:51.792Z,97807.84
2022-11-16T20:16:20.094Z,97806.91
2022-11-16T20:18:47.565Z,97792.16
2022-11-16T20:21:25.714Z,97779.06
2022-11-16T20:23:53.443Z,97777.41
2022-11-16T20:26:21.416Z,97781.59
2022-11-16T20:28:52.215Z,97772.03
2022-11-16T20:31:26.805Z,97766.84
2022-11-16T20:33:58.312Z,97771.81
2022-11-16T20:36:27.799Z,97773.47
2022-11-16T20:38:55.724Z,97763.09
2022-11-16T20:41:24.748Z,97756.97
2022-11-16T20:43:56.377Z,97748.34
2022-11-16T20:46:25.632Z,97743.16
2022-11-16T20:48:52.150Z,97745.75
2022-11-16T20:51:20.185Z,97747.50
2022-11-16T20:53:47.928Z,97729.34
2022-11-16T20:56:15.888Z,97713.66
2022-11-16T20:58:42.734Z,97698.00
2022-11-16T21:01:28.141Z,97691.09
2022-11-16T21:03:55.936Z,97682.28
2022-11-16T21:06:22.468Z,97669.41
2022-11-16T21:08:49.193Z,97651.25
2022-11-16T21:11:18.444Z,97627.22
2022-11-16T21:14:18.221Z,97635.66
2022-11-16T21:16:44.797Z,97633.88
2022-11-16T21:19:11.924Z,97625.25
2022-11-16T21:21:40.398Z,97623.56
2022-11-16T21:24:10.094Z,97602.47
2022-11-16T21:26:37.435Z,97604.69
2022-11-16T21:29:04.264Z,97604.78
2022-11-16T21:31:33.285Z,97615.72
2022-11-16T21:34:00.991Z,97606.16
2022-11-16T21:36:29.984Z,97595.66
2022-11-16T21:38:58.047Z,97596.28
2022-11-16T21:41:25.254Z,97585.91
2022-11-16T21:43:51.761Z,97589.41
2022-11-16T21:46:20.993Z,97599.38
2022-11-16T21:48:48.187Z,97608.66
2022-11-16T21:51:19.930Z,97595.66
2022-11-16T21:53:46.846Z,97585.25
2022-11-16T21:56:15.760Z,97590.03
2022-11-16T21:58:42.924Z,97577.78
2022-11-16T22:01:10.861Z,97566.56
2022-11-16T22:03:38.333Z,97568.09
2022-11-16T22:06:25.595Z,97550.97
2022-11-16T22:08:52.688Z,97561.97
2022-11-16T22:11:21.996Z,97565.31
2022-11-16T22:13:49.744Z,97568.63
2022-11-16T22:16:18.532Z,97559.88
2022-11-16T22:18:45.112Z,97548.66
2022-11-16T22:21:12.030Z,97552.84
2022-11-16T22:23:39.038Z,97550.13
2022-11-16T22:26:08.289Z,97544.09
2022-11-16T22:28:35.521Z,97527.75
2022-11-16T22:31:07.070Z,97537.25
2022-11-16T22:33:34.886Z,97533.91
2022-11-16T22:36:02.124Z,97538.28
2022-11-16T22:38:28.737Z,97531.41
2022-11-16T22:40:57.102Z,97527.03
2022-11-16T22:43:26.448Z,97533.06
2022-11-16T22:45:57.482Z,97518.31
2022-11-16T22:48:27.888Z,97520.06
2022-11-16T22:51:02.235Z,97524.25
2022-11-16T22:53:28.691Z,97514.56
2022-11-16T22:55:55.136Z,97496.09
2022-11-16T22:58:21.646Z,97486.31
2022-11-16T23:00:48.107Z,97498.97
2022-11-16T23:03:14.601Z,97486.81
2022-11-16T23:05:41.107Z,97479.03
2022-11-16T23:08:07.545Z,97474.66
2022-11-16T23:10:53.959Z,97469.44
2022-11-16T23:13:39.130Z,97473.59
2022-11-16T23:16:05.834Z,97466.63
2022-11-16T23:18:32.250Z,97456.16
2022-11-16T23:21:17.298Z,97451.97
2022-11-16T23:24:02.167Z,97447.28
2022-11-16T23:26:47.026Z,97435.34
2022-11-16T23:29:13.476Z,97432.53
2022-11-16T23:31:39.925Z,97417.75
2022-11-16T23:34:06.436Z,97408.06
2022-11-16T23:36:32.887Z,97418.16
2022-11-16T23:38:59.386Z,97422.28
2022-11-16T23:41:44.405Z,97410.97
2022-11-16T23:44:10.899Z,97412.38
2022-11-16T23:46:37.339Z,97413.84
2022-11-16T23:49:03.835Z,97406.53
2022-11-16T23:51:30.316Z,97403.47
2022-11-16T23:53:56.931Z,97399.00
2022-11-16T23:56:23.732Z,97398.25
2022-11-16T23:58:50.247Z,97402.06
